Time;durP1;ratioP1;P1;durP2;ratioP2;P2;SDS_P1;SDS_P2;PMS_P1;PMS_P2;Temp;Humidity;BMP_temperature;BMP_pressure;BME280_temperature;BME280_humidity;BME280_pressure;Samples;Min_cycle;Max_cycle;Signal;HPM_P1;HPM_P2
2023/10/29 00:01:10;;;;;;;8.15;4.43;;;;;;;15.54;77.10;99589.63;5116510;28;20055;-64
2023/10/29 00:03:36;;;;;;;11.63;4.78;;;;;;;15.73;76.24;99587.31;5118394;28;20042;-62
2023/10/29 00:06:01;;;;;;;9.95;4.90;;;;;;;15.83;76.27;99585.94;5116934;28;20031;-63
2023/10/29 00:08:27;;;;;;;8.50;5.20;;;;;;;16.02;75.42;99595.03;5117443;28;20040;-63
2023/10/29 00:10:52;;;;;;;11.00;5.07;;;;;;;16.01;74.25;99596.06;5119086;28;20209;-63
2023/10/29 00:13:18;;;;;;;8.73;5.18;;;;;;;15.88;74.83;99598.69;5117622;28;20280;-63
2023/10/29 00:15:43;;;;;;;8.82;4.80;;;;;;;15.91;75.50;99606.28;5121381;27;20034;-64
2023/10/29 00:18:12;;;;;;;10.35;4.95;;;;;;;15.98;75.56;99603.63;5121296;27;20035;-63
2023/10/29 00:20:38;;;;;;;9.05;5.18;;;;;;;16.10;75.59;99612.72;5122502;27;20040;-63
2023/10/29 00:23:03;;;;;;;8.98;4.90;;;;;;;16.16;75.34;99606.56;5121477;27;20098;-63
2023/10/29 00:25:29;;;;;;;8.82;4.82;;;;;;;16.26;75.18;99607.84;5121958;27;20250;-64
2023/10/29 00:27:55;;;;;;;12.30;5.65;;;;;;;16.27;75.24;99606.00;5121311;27;20029;-62
2023/10/29 00:30:20;;;;;;;8.07;4.93;;;;;;;16.35;75.16;99623.69;5121161;27;20085;-63
2023/10/29 00:32:46;;;;;;;8.85;5.03;;;;;;;16.44;74.93;99619.78;5121613;27;20031;-63
2023/10/29 00:35:11;;;;;;;7.65;4.60;;;;;;;16.44;73.62;99628.63;5121835;27;20035;-63
2023/10/29 00:37:37;;;;;;;11.60;4.88;;;;;;;16.31;73.33;99628.59;5121661;27;20059;-63
2023/10/29 00:40:04;;;;;;;14.25;5.38;;;;;;;16.21;74.46;99629.00;5121887;27;20027;-63
2023/10/29 00:42:30;;;;;;;7.60;5.43;;;;;;;16.19;75.75;99636.38;5120994;27;20132;-63
2023/10/29 00:44:55;;;;;;;9.57;6.05;;;;;;;16.08;76.98;99642.31;5122148;27;20036;-64
2023/10/29 00:47:21;;;;;;;10.35;5.30;;;;;;;16.13;76.67;99641.69;5121555;27;20046;-64
2023/10/29 00:49:46;;;;;;;9.98;6.38;;;;;;;16.12;77.13;99635.53;5120426;27;20035;-64
2023/10/29 00:52:13;;;;;;;10.95;6.00;;;;;;;16.08;77.37;99636.97;5121822;27;20352;-63
2023/10/29 00:54:39;;;;;;;11.52;6.40;;;;;;;15.87;78.30;99637.91;5120412;27;20061;-63
2023/10/29 00:57:06;;;;;;;10.10;6.05;;;;;;;15.90;78.75;99642.84;5120268;28;20039;-63
2023/10/29 00:59:34;;;;;;;12.25;6.88;;;;;;;16.00;78.50;99638.97;5120263;27;20058;-63
2023/10/29 01:01:59;;;;;;;14.52;7.78;;;;;;;16.13;78.24;99653.22;5120717;27;20035;-63
2023/10/29 01:04:25;;;;;;;11.32;5.97;;;;;;;16.05;77.77;99655.22;5120890;27;20484;-63
2023/10/29 01:06:51;;;;;;;10.52;6.43;;;;;;;15.88;78.76;99657.41;5120823;27;20042;-64
2023/10/29 01:09:17;;;;;;;12.52;7.40;;;;;;;15.72;79.42;99652.41;5120346;27;20039;-63
2023/10/29 01:11:43;;;;;;;10.77;6.20;;;;;;;15.71;79.59;99664.94;5119840;27;20364;-64
2023/10/29 01:14:08;;;;;;;13.52;7.15;;;;;;;15.74;79.58;99666.38;5120146;27;20031;-64
2023/10/29 01:16:34;;;;;;;16.58;8.15;;;;;;;15.77;79.75;99666.81;5119844;27;20027;-63
2023/10/29 01:18:59;;;;;;;14.02;8.38;;;;;;;15.72;80.68;99661.25;5120901;27;20988;-63
2023/10/29 01:21:27;;;;;;;11.50;7.28;;;;;;;15.64;81.06;99654.22;5119827;27;20046;-64
2023/10/29 01:23:53;;;;;;;12.63;7.97;;;;;;;15.66;81.04;99653.19;5120818;27;20333;-63
2023/10/29 01:26:18;;;;;;;13.00;7.97;;;;;;;15.56;81.90;99650.81;5119365;28;20031;-64
2023/10/29 01:28:44;;;;;;;15.75;8.23;;;;;;;15.60;83.00;99660.97;5120116;27;20247;-63
2023/10/29 01:31:10;;;;;;;17.40;8.43;;;;;;;15.46;83.26;99645.84;5120469;27;20337;-63
2023/10/29 01:33:36;;;;;;;15.77;8.98;;;;;;;15.52;83.56;99663.72;5119805;27;20192;-63
2023/10/29 01:36:01;;;;;;;14.65;8.00;;;;;;;15.58;83.82;99657.66;5120215;27;20039;-63
2023/10/29 01:38:27;;;;;;;15.48;8.85;;;;;;;15.75;83.03;99660.84;5120308;27;20044;-64
2023/10/29 01:40:52;;;;;;;12.93;8.48;;;;;;;15.75;82.77;99654.69;5119432;27;20069;-64
2023/10/29 01:43:18;;;;;;;14.63;8.82;;;;;;;15.80;82.20;99655.75;5120273;27;20047;-63
2023/10/29 01:45:43;;;;;;;14.30;8.20;;;;;;;15.78;82.42;99656.97;5120709;27;20023;-62
2023/10/29 01:48:08;;;;;;;15.70;8.85;;;;;;;15.81;82.38;99664.56;5120640;27;20042;-62
2023/10/29 01:50:36;;;;;;;13.88;8.27;;;;;;;15.88;81.64;99660.91;5120021;27;20031;-63
2023/10/29 01:53:01;;;;;;;14.30;8.15;;;;;;;15.94;81.69;99673.47;5119777;27;20039;-63
2023/10/29 01:55:27;;;;;;;13.63;9.20;;;;;;;16.01;81.19;99664.66;5119193;27;20259;-63
2023/10/29 01:57:52;;;;;;;11.77;8.07;;;;;;;16.02;80.74;99675.16;5119949;27;20250;-62
2023/10/29 02:00:19;;;;;;;13.07;8.15;;;;;;;15.93;80.79;99677.16;5119995;27;20455;-63
2023/10/29 02:02:46;;;;;;;14.32;8.95;;;;;;;16.01;80.32;99670.00;5119970;27;20036;-63
2023/10/29 02:05:12;;;;;;;13.68;8.02;;;;;;;16.04;79.89;99674.94;5119549;27;20054;-63
2023/10/29 02:07:37;;;;;;;15.07;8.38;;;;;;;16.00;79.75;99660.34;5119633;27;20063;-64
2023/10/29 02:10:03;;;;;;;14.35;8.43;;;;;;;16.06;79.66;99670.22;5119334;27;20263;-63
2023/10/29 02:12:29;;;;;;;11.32;8.13;;;;;;;16.06;79.92;99679.06;5120044;27;20036;-63
2023/10/29 02:14:54;;;;;;;12.20;7.43;;;;;;;16.10;79.43;99683.00;5119557;27;20039;-63
2023/10/29 02:17:23;;;;;;;13.63;7.60;;;;;;;16.08;78.75;99676.19;5119220;27;20027;-62
2023/10/29 02:19:49;;;;;;;13.30;6.80;;;;;;;16.03;78.86;99676.78;5119855;27;20614;-63
2023/10/29 02:22:14;;;;;;;10.45;7.10;;;;;;;16.10;78.68;99680.31;5119731;27;20304;-63
2023/10/29 02:24:40;;;;;;;10.82;6.97;;;;;;;16.11;79.00;99684.63;5119265;27;20024;-63
2023/10/29 02:27:05;;;;;;;15.60;7.90;;;;;;;16.07;78.65;99687.91;5118963;27;20309;-63
2023/10/29 02:29:31;;;;;;;13.77;8.27;;;;;;;15.76;79.41;99691.88;5118404;27;20108;-63
2023/10/29 02:31:56;;;;;;;17.67;9.25;;;;;;;15.85;78.86;99692.53;5118787;27;20369;-63
2023/10/29 02:34:21;;;;;;;22.50;10.80;;;;;;;15.72;78.59;99679.94;5119128;27;20081;-63
2023/10/29 02:36:47;;;;;;;18.48;10.30;;;;;;;15.66;79.09;99701.25;5118090;27;20028;-63
2023/10/29 02:39:13;;;;;;;16.25;8.60;;;;;;;15.64;78.95;99698.78;5118420;27;20051;-62
2023/10/29 02:41:38;;;;;;;15.88;8.52;;;;;;;15.72;78.69;99717.31;5119423;27;20180;-63
2023/10/29 02:44:03;;;;;;;13.82;8.25;;;;;;;15.73;78.31;99712.78;5120018;27;20031;-63
2023/10/29 02:46:30;;;;;;;14.52;8.20;;;;;;;15.67;74.97;99719.72;5119770;27;20063;-62
2023/10/29 02:48:56;;;;;;;12.05;7.15;;;;;;;15.43;73.46;99717.44;5119175;27;20233;-63
2023/10/29 02:51:21;;;;;;;13.90;8.02;;;;;;;15.16;74.10;99724.41;5118671;27;20225;-63
2023/10/29 02:53:47;;;;;;;15.40;8.00;;;;;;;15.11;74.75;99732.16;5119557;27;20027;-64
2023/10/29 02:56:12;;;;;;;13.60;7.75;;;;;;;14.98;74.78;99736.34;5118300;27;20058;-63
2023/10/29 02:58:38;;;;;;;17.10;8.07;;;;;;;14.84;73.71;99739.91;5118314;27;20076;-63
2023/10/29 03:01:07;;;;;;;12.52;7.10;;;;;;;14.33;74.72;99742.56;5118090;27;20232;-63
2023/10/29 03:03:33;;;;;;;15.10;7.35;;;;;;;13.38;83.10;99747.72;5119492;27;20377;-63
2023/10/29 03:06:06;;;;;;;14.13;7.75;;;;;;;13.51;84.03;99749.78;5118355;27;20035;-63
2023/10/29 03:08:32;;;;;;;17.35;8.48;;;;;;;13.88;82.59;99738.28;5117769;27;20028;-63
2023/10/29 03:10:58;;;;;;;14.20;8.02;;;;;;;14.13;82.10;99736.16;5119324;27;20020;-63
2023/10/29 03:13:23;;;;;;;11.32;7.78;;;;;;;14.22;82.09;99735.03;5118107;27;20038;-63
2023/10/29 03:15:49;;;;;;;11.02;6.68;;;;;;;14.39;81.79;99735.66;5118533;27;20036;-63
2023/10/29 03:18:14;;;;;;;15.73;6.88;;;;;;;14.51;80.92;99728.88;5117925;27;20857;-63
2023/10/29 03:20:41;;;;;;;9.85;6.50;;;;;;;14.71;80.03;99734.44;5118146;27;20046;-63
2023/10/29 03:23:06;;;;;;;11.50;6.97;;;;;;;14.74;79.94;99739.41;5118584;27;20123;-63
2023/10/29 03:25:32;;;;;;;14.45;7.10;;;;;;;14.80;79.27;99743.16;5119166;27;20035;-63
2023/10/29 03:27:57;;;;;;;11.40;6.75;;;;;;;14.92;78.82;99746.97;5117763;27;20275;-63
2023/10/29 03:30:23;;;;;;;13.07;6.25;;;;;;;15.02;78.09;99745.63;5117789;27;20039;-63
2023/10/29 03:32:48;;;;;;;12.65;5.90;;;;;;;15.07;77.60;99750.38;5116956;27;20035;-62
2023/10/29 03:35:13;;;;;;;9.00;6.53;;;;;;;15.14;77.76;99753.94;5117346;27;20089;-63
2023/10/29 03:37:39;;;;;;;13.43;8.23;;;;;;;15.05;78.03;99754.25;5117475;27;20359;-63
2023/10/29 03:40:06;;;;;;;11.13;9.13;;;;;;;15.02;78.76;99756.28;5118223;27;20968;-63
2023/10/29 03:42:32;;;;;;;13.05;8.43;;;;;;;15.12;78.57;99768.50;5117482;27;20453;-63
2023/10/29 03:44:58;;;;;;;10.85;8.75;;;;;;;15.20;77.93;99769.19;5118352;28;20031;-62
2023/10/29 03:47:23;;;;;;;13.27;8.45;;;;;;;15.22;77.70;99774.31;5116853;27;20030;-63
2023/10/29 03:49:49;;;;;;;10.43;6.60;;;;;;;15.21;77.46;99773.50;5117294;28;20042;-63
2023/10/29 03:52:14;;;;;;;10.35;5.32;;;;;;;15.13;78.02;99768.28;5117911;28;20069;-63
2023/10/29 03:54:40;;;;;;;10.80;5.75;;;;;;;15.19;77.63;99778.19;5117553;28;20038;-63
2023/10/29 03:57:05;;;;;;;7.43;5.60;;;;;;;15.25;77.59;99772.09;5117385;28;20274;-63
2023/10/29 03:59:31;;;;;;;8.05;5.40;;;;;;;15.28;76.44;99774.38;5118778;28;20233;-64
2023/10/29 04:01:56;;;;;;;10.60;5.90;;;;;;;15.28;75.33;99770.88;5118783;28;20032;-63
2023/10/29 04:04:22;;;;;;;7.20;5.78;;;;;;;15.24;74.64;99781.13;5117793;28;20050;-63
2023/10/29 04:06:47;;;;;;;11.45;5.50;;;;;;;15.24;74.49;99774.97;5118410;28;20032;-63
2023/10/29 04:09:13;;;;;;;10.30;5.90;;;;;;;15.18;74.64;99778.38;5118231;28;20031;-63
2023/10/29 04:11:38;;;;;;;8.30;3.88;;;;;;;15.19;75.63;99778.19;5118346;28;20039;-62
2023/10/29 04:14:04;;;;;;;8.13;3.55;;;;;;;15.18;75.88;99779.22;5118508;28;20035;-63
2023/10/29 04:16:29;;;;;;;9.15;3.60;;;;;;;15.18;76.32;99781.06;5117956;28;20039;-62
2023/10/29 04:18:55;;;;;;;11.48;4.93;;;;;;;15.13;76.52;99780.81;5117874;28;20046;-63
2023/10/29 04:21:20;;;;;;;6.25;4.05;;;;;;;14.83;77.69;99780.09;5118723;28;20064;-63
2023/10/29 04:23:46;;;;;;;6.85;3.88;;;;;;;14.64;77.49;99782.34;5118098;28;20322;-62
2023/10/29 04:26:11;;;;;;;11.35;4.85;;;;;;;14.67;77.34;99786.47;5118178;28;20031;-63
2023/10/29 04:28:37;;;;;;;10.48;5.68;;;;;;;14.91;76.20;99802.13;5117447;28;20035;-62
2023/10/29 04:31:03;;;;;;;12.45;5.00;;;;;;;14.93;75.25;99796.59;5117685;28;20244;-63
2023/10/29 04:33:28;;;;;;;10.93;5.90;;;;;;;14.85;74.45;99797.53;5117342;28;20039;-62
2023/10/29 04:35:53;;;;;;;12.32;5.43;;;;;;;14.81;74.90;99811.44;5099372;28;20041;-62
2023/10/29 04:38:19;;;;;;;10.30;4.75;;;;;;;14.91;74.75;99801.28;5117692;28;20345;-62
2023/10/29 04:40:45;;;;;;;7.60;4.50;;;;;;;14.79;74.39;99808.97;5118167;28;20042;-63
2023/10/29 04:43:11;;;;;;;10.60;5.32;;;;;;;14.63;74.31;99817.16;5116989;28;20306;-63
2023/10/29 04:45:36;;;;;;;6.55;4.05;;;;;;;14.59;73.74;99822.03;5116906;28;20040;-63
2023/10/29 04:48:02;;;;;;;9.48;4.30;;;;;;;14.61;73.56;99825.34;5116421;28;20065;-62
2023/10/29 04:50:30;;;;;;;8.65;4.60;;;;;;;14.58;73.12;99835.56;5116898;28;20055;-62
2023/10/29 04:52:56;;;;;;;12.90;3.88;;;;;;;14.56;74.18;99834.88;5116245;28;20047;-63
2023/10/29 04:55:21;;;;;;;7.88;3.67;;;;;;;14.57;75.72;99840.06;5117672;28;20853;-62
2023/10/29 04:57:47;;;;;;;7.20;4.45;;;;;;;14.63;75.49;99841.97;5116822;28;20291;-62
2023/10/29 05:00:13;;;;;;;10.30;3.95;;;;;;;14.67;75.94;99842.44;5118294;27;20069;-62
2023/10/29 05:02:38;;;;;;;6.90;3.78;;;;;;;14.72;75.31;99842.72;5121253;27;20032;-63
2023/10/29 05:05:06;;;;;;;52.67;7.30;;;;;;;14.74;73.94;99847.84;5121390;27;20076;-63
2023/10/29 05:07:32;;;;;;;8.15;3.97;;;;;;;14.70;72.75;99844.72;5121208;27;20035;-63
2023/10/29 05:09:58;;;;;;;12.20;4.88;;;;;;;14.75;74.57;99842.34;5121979;27;20038;-63
2023/10/29 05:12:23;;;;;;;8.93;3.53;;;;;;;14.79;74.41;99845.44;5121155;27;20028;-62
2023/10/29 05:14:51;;;;;;;9.55;3.97;;;;;;;14.84;74.85;99851.06;5120854;27;20068;-62
2023/10/29 05:17:17;;;;;;;8.48;3.78;;;;;;;14.85;74.76;99855.38;5120698;27;20819;-62
2023/10/29 05:19:44;;;;;;;9.10;5.20;;;;;;;14.82;74.92;99848.56;5120239;27;20643;-62
2023/10/29 05:22:09;;;;;;;12.50;4.28;;;;;;;14.87;75.07;99854.16;5119728;27;20058;-62
2023/10/29 05:24:35;;;;;;;13.48;4.97;;;;;;;14.94;74.80;99863.06;5119637;27;20035;-62
2023/10/29 05:27:01;;;;;;;11.25;4.78;;;;;;;14.95;74.82;99859.38;5120632;27;20038;-62
2023/10/29 05:29:27;;;;;;;8.55;4.03;;;;;;;14.85;75.87;99858.84;5120600;27;20314;-63
2023/10/29 05:31:53;;;;;;;6.45;3.80;;;;;;;14.83;75.63;99862.72;5121314;27;20054;-63
2023/10/29 05:34:18;;;;;;;9.27;6.30;;;;;;;14.93;75.87;99865.91;5121959;27;20132;-63
2023/10/29 05:36:44;;;;;;;7.35;5.50;;;;;;;14.92;75.53;99873.09;5121076;27;20035;-62
2023/10/29 05:39:09;;;;;;;7.53;4.18;;;;;;;14.82;76.08;99875.22;5120284;27;20081;-63
2023/10/29 05:41:35;;;;;;;9.63;3.78;;;;;;;14.83;76.67;99868.06;5120280;27;20194;-63
2023/10/29 05:44:01;;;;;;;5.78;3.13;;;;;;;14.92;76.35;99882.94;5120084;27;20027;-62
2023/10/29 05:46:27;;;;;;;6.35;3.00;;;;;;;14.90;76.83;99885.78;5119390;27;20032;-63
2023/10/29 05:48:52;;;;;;;6.22;2.80;;;;;;;15.03;76.89;99887.78;5119298;27;20039;-62
2023/10/29 05:51:21;;;;;;;10.07;3.90;;;;;;;15.05;76.15;99892.94;5120666;28;20112;-62
2023/10/29 05:53:49;;;;;;;5.65;2.97;;;;;;;15.06;76.19;99900.75;5121465;27;20044;-63
2023/10/29 05:56:14;;;;;;;5.03;3.08;;;;;;;15.16;75.81;99905.78;5118934;27;20059;-63
2023/10/29 05:58:40;;;;;;;7.43;3.45;;;;;;;15.28;75.20;99913.09;5121735;27;20039;-63
2023/10/29 06:01:05;;;;;;;5.50;3.05;;;;;;;15.36;75.03;99924.69;5119438;28;20283;-63
2023/10/29 06:03:31;;;;;;;7.90;4.00;;;;;;;15.41;75.24;99914.25;5120465;27;20048;-62
2023/10/29 06:05:58;;;;;;;5.32;3.55;;;;;;;15.50;74.44;99915.78;5119229;28;20030;-63
2023/10/29 06:08:24;;;;;;;5.72;4.20;;;;;;;15.51;74.88;99918.28;5120884;27;20054;-63
2023/10/29 06:10:50;;;;;;;10.02;4.70;;;;;;;15.58;75.10;99913.88;5119848;27;20507;-64
2023/10/29 06:13:16;;;;;;;6.85;4.78;;;;;;;15.55;74.88;99918.72;5120408;27;20031;-62
2023/10/29 06:15:41;;;;;;;8.75;4.18;;;;;;;15.59;74.31;99930.72;5120125;28;20053;-65
2023/10/29 06:18:07;;;;;;;7.72;4.07;;;;;;;15.70;74.18;99922.22;5119939;27;20087;-62
2023/10/29 06:20:33;;;;;;;6.88;3.67;;;;;;;15.73;74.70;99924.50;5119845;28;20043;-63
2023/10/29 06:22:59;;;;;;;5.78;3.55;;;;;;;15.86;74.54;99927.31;5119852;27;20462;-64
2023/10/29 06:25:24;;;;;;;7.78;3.80;;;;;;;15.98;73.91;99935.63;5120045;27;20035;-63
2023/10/29 06:27:49;;;;;;;7.82;3.90;;;;;;;16.18;72.97;99936.63;5118808;27;20199;-63
2023/10/29 06:30:16;;;;;;;7.30;3.60;;;;;;;16.40;72.51;99937.38;5118708;27;20359;-63
2023/10/29 06:32:42;;;;;;;8.57;4.15;;;;;;;16.59;71.77;99939.38;5119215;27;20046;-63
2023/10/29 06:35:08;;;;;;;7.93;4.45;;;;;;;16.76;70.82;99939.94;5099115;28;20313;-63
2023/10/29 06:37:33;;;;;;;6.40;4.30;;;;;;;16.92;70.87;99949.50;5119193;27;20054;-64
2023/10/29 06:39:58;;;;;;;4.80;3.75;;;;;;;17.11;70.40;99955.97;5118054;28;20044;-63
2023/10/29 06:42:24;;;;;;;8.45;4.30;;;;;;;17.16;70.89;99951.66;5119267;27;20039;-63
2023/10/29 06:44:49;;;;;;;6.95;3.67;;;;;;;17.25;69.88;99949.63;5120411;27;20057;-63
2023/10/29 06:47:15;;;;;;;7.78;4.30;;;;;;;17.36;69.27;99958.94;5119175;28;20036;-62
2023/10/29 06:49:41;;;;;;;5.75;4.20;;;;;;;17.40;68.83;99936.91;5119276;27;20050;-63
2023/10/29 06:52:07;;;;;;;8.57;5.20;;;;;;;17.42;68.98;99958.13;5118018;28;20085;-62
2023/10/29 06:54:33;;;;;;;5.57;4.55;;;;;;;17.54;68.51;99959.19;5119009;27;20320;-63
2023/10/29 06:56:59;;;;;;;7.15;5.93;;;;;;;17.73;68.42;99966.50;5119165;28;20091;-63
2023/10/29 06:59:24;;;;;;;9.27;4.93;;;;;;;17.83;68.72;99960.75;5118362;27;20043;-62
2023/10/29 07:01:50;;;;;;;7.75;4.55;;;;;;;17.94;67.76;99962.84;5119147;28;20051;-62
2023/10/29 07:04:16;;;;;;;9.27;4.75;;;;;;;18.01;66.45;99962.84;5117728;27;20040;-62
2023/10/29 07:06:42;;;;;;;7.13;4.47;;;;;;;17.98;67.10;99960.56;5119015;27;20295;-62
2023/10/29 07:09:08;;;;;;;8.60;3.95;;;;;;;18.02;66.49;99951.91;5119015;27;20042;-62
2023/10/29 07:11:34;;;;;;;7.95;4.40;;;;;;;18.20;66.46;99964.72;5120114;27;20032;-62
2023/10/29 07:13:59;;;;;;;8.23;5.13;;;;;;;18.32;66.96;99962.22;5118934;27;20088;-62
2023/10/29 07:16:25;;;;;;;10.65;5.00;;;;;;;18.38;65.97;99964.91;5117912;28;20039;-62
2023/10/29 07:18:50;;;;;;;7.85;4.68;;;;;;;18.50;65.83;99965.09;5118214;27;20043;-62
2023/10/29 07:21:16;;;;;;;10.13;5.05;;;;;;;18.62;64.89;99957.28;5118524;28;20255;-61
2023/10/29 07:23:41;;;;;;;11.18;5.15;;;;;;;18.73;65.01;99962.03;5117446;27;20040;-62
2023/10/29 07:26:07;;;;;;;9.45;4.35;;;;;;;18.63;63.91;99966.97;5118217;28;20321;-62
2023/10/29 07:28:34;;;;;;;10.75;4.25;;;;;;;18.75;63.89;99962.66;5117853;27;20039;-63
2023/10/29 07:31:01;;;;;;;7.78;4.20;;;;;;;18.91;64.50;99958.69;5098822;28;20028;-62
2023/10/29 07:33:27;;;;;;;6.22;4.15;;;;;;;19.07;63.69;99968.97;5109401;27;20034;-62
2023/10/29 07:35:52;;;;;;;6.65;3.78;;;;;;;19.21;63.82;99967.06;5118243;28;20031;-64
2023/10/29 07:38:18;;;;;;;5.63;3.53;;;;;;;19.29;62.70;99958.75;5119148;27;20073;-62
2023/10/29 07:40:43;;;;;;;9.40;3.55;;;;;;;19.46;62.34;99962.59;5119116;28;20039;-63
2023/10/29 07:43:09;;;;;;;6.28;3.03;;;;;;;19.54;62.93;99965.06;5117446;28;20035;-62
2023/10/29 07:45:35;;;;;;;6.20;3.33;;;;;;;19.45;62.62;99955.56;5118440;27;20099;-62
2023/10/29 07:48:01;;;;;;;5.50;3.38;;;;;;;19.51;62.89;99953.91;5099119;28;20261;-62
2023/10/29 07:50:26;;;;;;;5.43;2.90;;;;;;;19.61;63.38;99962.34;5120659;27;20051;-63
2023/10/29 07:52:52;;;;;;;4.82;2.70;;;;;;;19.74;62.26;99963.09;5117944;27;20042;-63
2023/10/29 07:55:17;;;;;;;5.32;2.70;;;;;;;19.62;60.75;99959.44;5118933;28;20039;-63
2023/10/29 07:57:43;;;;;;;9.75;2.97;;;;;;;19.84;61.58;99959.94;5118530;28;20027;-63
2023/10/29 08:00:15;;;;;;;5.38;2.67;;;;;;;19.98;60.88;99952.63;5117849;28;20270;-62
2023/10/29 08:02:42;;;;;;;5.18;3.13;;;;;;;20.13;60.04;99955.00;5117681;28;20273;-62
2023/10/29 08:05:10;;;;;;;6.07;2.38;;;;;;;20.02;59.86;99954.66;5117749;28;20032;-67
2023/10/29 08:07:36;;;;;;;3.70;2.33;;;;;;;20.17;59.65;99956.19;5117638;28;20056;-65
2023/10/29 08:10:01;;;;;;;4.45;2.72;;;;;;;20.21;58.51;99957.41;5118346;28;20084;-63
2023/10/29 08:12:28;;;;;;;6.60;1.95;;;;;;;20.17;59.19;99965.09;5118196;28;20031;-64
2023/10/29 08:14:54;;;;;;;4.68;2.60;;;;;;;20.33;59.18;99971.78;5117326;28;20054;-61
2023/10/29 08:17:20;;;;;;;4.55;2.45;;;;;;;20.40;59.20;99977.94;5098456;28;20027;-63
2023/10/29 08:19:47;;;;;;;6.53;2.40;;;;;;;20.45;58.98;99979.97;5117086;28;20111;-63
2023/10/29 08:22:13;;;;;;;3.75;2.25;;;;;;;20.40;57.75;99984.16;5116864;28;20050;-63
2023/10/29 08:24:39;;;;;;;6.63;3.08;;;;;;;20.47;57.14;99988.66;5117372;28;20106;-62
2023/10/29 08:27:07;;;;;;;4.95;2.20;;;;;;;20.55;56.18;99991.06;5117530;28;20058;-64
2023/10/29 08:29:35;;;;;;;5.65;2.20;;;;;;;20.39;55.81;99990.59;5117485;28;20066;-64
2023/10/29 08:32:01;;;;;;;6.50;3.75;;;;;;;20.47;56.99;100000.25;5116828;28;20043;-64
2023/10/29 08:34:27;;;;;;;9.05;4.63;;;;;;;20.56;56.26;99998.09;5117928;27;20049;-64
2023/10/29 08:36:53;;;;;;;9.07;6.55;;;;;;;20.42;56.50;99996.56;5121275;28;20043;-64
2023/10/29 08:39:21;;;;;;;6.90;3.20;;;;;;;20.43;55.95;100006.28;5121456;28;20036;-64
2023/10/29 08:41:47;;;;;;;4.00;2.13;;;;;;;20.54;54.02;100002.88;5120790;28;20027;-63
2023/10/29 08:44:12;;;;;;;5.90;2.90;;;;;;;20.57;55.98;100000.56;5121029;27;20061;-62
2023/10/29 08:46:37;;;;;;;5.20;3.00;;;;;;;20.60;55.78;100002.00;5120991;28;20035;-62
2023/10/29 08:49:03;;;;;;;6.03;2.22;;;;;;;20.48;55.30;99996.50;5121433;28;20034;-62
2023/10/29 08:51:28;;;;;;;6.18;2.33;;;;;;;20.54;55.66;100003.69;5120655;28;20764;-62
2023/10/29 08:53:54;;;;;;;5.57;2.50;;;;;;;20.62;55.53;99999.91;5120729;28;20034;-62
2023/10/29 08:56:19;;;;;;;4.85;2.78;;;;;;;20.68;55.45;100002.53;5120307;28;20064;-63
2023/10/29 08:58:45;;;;;;;8.02;2.88;;;;;;;20.78;55.71;100002.03;5120702;28;20050;-65
2023/10/29 09:01:12;;;;;;;9.95;5.75;;;;;;;20.77;53.70;100003.06;5119602;28;20341;-62
2023/10/29 09:03:37;;;;;;;4.00;2.33;;;;;;;20.72;54.07;99992.97;5120090;28;20236;-63
2023/10/29 09:06:03;;;;;;;9.38;2.80;;;;;;;20.75;54.04;99993.56;5119830;28;20031;-64
2023/10/29 09:08:31;;;;;;;4.05;2.65;;;;;;;20.78;55.63;99993.13;5118194;28;20034;-64
2023/10/29 09:10:57;;;;;;;6.65;2.85;;;;;;;20.78;53.64;99993.13;5120011;27;20034;-64
2023/10/29 09:13:23;;;;;;;6.65;3.00;;;;;;;20.82;53.83;99991.66;5119946;28;20055;-64
2023/10/29 09:15:49;;;;;;;7.18;2.45;;;;;;;20.71;53.52;99985.94;5120571;28;20027;-64
2023/10/29 09:18:14;;;;;;;6.82;2.47;;;;;;;20.73;54.29;99986.53;5120460;28;20333;-65
2023/10/29 09:20:40;;;;;;;4.95;1.88;;;;;;;20.78;52.79;99988.56;5120535;27;20050;-62
2023/10/29 09:23:05;;;;;;;3.85;2.33;;;;;;;20.84;53.59;99993.09;5120091;28;20028;-63
2023/10/29 09:25:31;;;;;;;3.30;1.80;;;;;;;20.91;53.62;99982.25;5119830;28;20245;-63
2023/10/29 09:27:58;;;;;;;5.70;2.25;;;;;;;21.01;51.38;99987.94;5119641;28;20039;-64
2023/10/29 09:30:23;;;;;;;6.07;2.67;;;;;;;21.06;53.34;99981.88;5119783;28;20039;-64
2023/10/29 09:32:48;;;;;;;5.18;2.20;;;;;;;21.10;52.96;99981.22;5120602;28;20046;-61
2023/10/29 09:35:14;;;;;;;3.50;1.65;;;;;;;21.15;52.31;99978.66;5120673;28;20073;-61
2023/10/29 09:37:39;;;;;;;6.07;2.03;;;;;;;21.18;49.61;99980.91;5120898;28;20067;-63
2023/10/29 09:40:08;;;;;;;3.90;1.83;;;;;;;21.24;49.42;99971.97;5120436;28;20043;-64
2023/10/29 09:42:37;;;;;;;4.47;1.90;;;;;;;21.29;50.67;99973.97;5113488;28;20266;-65
2023/10/29 09:45:04;;;;;;;5.03;2.28;;;;;;;21.33;51.47;99967.09;5102115;28;20044;-63
2023/10/29 09:47:31;;;;;;;5.85;2.45;;;;;;;21.40;49.56;99970.50;5099048;28;20064;-64
2023/10/29 09:49:57;;;;;;;5.45;1.92;;;;;;;21.40;49.44;99967.00;5099828;28;20044;-64
2023/10/29 09:52:28;;;;;;;9.38;3.60;;;;;;;21.49;49.66;99963.75;5100069;28;20353;-64
2023/10/29 09:54:56;;;;;;;7.95;3.60;;;;;;;21.54;50.02;99957.69;5100393;28;20439;-63
2023/10/29 09:57:21;;;;;;;6.30;2.85;;;;;;;21.58;49.28;99958.88;5100940;28;20036;-64
2023/10/29 09:59:47;;;;;;;4.78;2.50;;;;;;;21.59;48.53;99955.94;5100715;28;20046;-64
2023/10/29 10:02:14;;;;;;;6.38;2.55;;;;;;;21.59;49.41;99952.44;5099490;28;20040;-64
2023/10/29 10:04:39;;;;;;;2.42;1.30;;;;;;;21.63;48.75;99946.34;5099944;28;20052;-63
2023/10/29 10:07:05;;;;;;;4.60;1.33;;;;;;;21.68;48.25;99937.59;5097890;28;20161;-63
2023/10/29 10:09:53;;;;;;;5.25;1.95;;;;;;;21.74;48.29;99944.75;5100968;28;20048;-64
2023/10/29 10:12:20;;;;;;;1.48;1.10;;;;;;;21.77;47.50;99951.56;5098010;28;20036;-64
2023/10/29 10:14:46;;;;;;;5.25;1.67;;;;;;;21.72;47.94;99941.47;5100684;28;20274;-63
2023/10/29 10:17:12;;;;;;;4.55;1.45;;;;;;;21.68;46.79;99945.66;5098142;28;20042;-63
2023/10/29 10:19:40;;;;;;;3.00;1.60;;;;;;;21.64;47.14;99948.00;5100133;28;20068;-63
2023/10/29 10:22:06;;;;;;;2.72;1.10;;;;;;;21.70;48.66;99943.56;5100427;28;20055;-64
2023/10/29 10:24:46;;;;;;;3.50;1.40;;;;;;;21.81;47.55;99948.16;5099619;28;20042;-64
2023/10/29 10:27:12;;;;;;;2.20;1.25;;;;;;;21.89;47.94;99949.75;5100393;28;20047;-63
2023/10/29 10:29:38;;;;;;;4.55;1.30;;;;;;;21.94;48.02;99939.91;5101254;28;20039;-64
2023/10/29 10:32:06;;;;;;;5.10;1.70;;;;;;;21.93;46.72;99938.28;5100276;28;20032;-64
2023/10/29 10:34:37;;;;;;;4.22;1.40;;;;;;;21.91;47.39;99931.47;5100986;28;20353;-63
2023/10/29 10:37:02;;;;;;;6.80;1.60;;;;;;;21.96;46.29;99932.41;5098112;28;20143;-63
2023/10/29 10:39:28;;;;;;;2.28;1.10;;;;;;;21.96;45.07;99934.28;5100335;28;20342;-64
2023/10/29 10:41:55;;;;;;;4.45;1.33;;;;;;;21.90;45.33;99929.81;5098258;28;20116;-64
2023/10/29 10:44:24;;;;;;;4.57;1.70;;;;;;;21.84;46.02;99919.94;5100044;28;20035;-63
2023/10/29 10:46:50;;;;;;;5.25;2.75;;;;;;;21.73;46.61;99924.25;5100727;28;20050;-64
2023/10/29 10:49:16;;;;;;;2.72;2.13;;;;;;;21.72;47.20;99927.16;5100816;28;20044;-64
2023/10/29 10:51:43;;;;;;;3.65;1.35;;;;;;;21.71;45.46;99920.97;5098734;28;20122;-63
2023/10/29 10:54:10;;;;;;;2.65;1.40;;;;;;;21.73;46.03;99920.72;5099161;28;20129;-65
2023/10/29 10:56:37;;;;;;;2.63;1.30;;;;;;;21.72;46.02;99922.59;5098870;28;20063;-62
2023/10/29 10:59:07;;;;;;;3.30;1.50;;;;;;;21.72;46.49;99921.78;5098751;28;20039;-62
2023/10/29 11:01:35;;;;;;;3.67;1.50;;;;;;;21.65;46.28;99913.78;5100141;28;20221;-62
2023/10/29 11:04:02;;;;;;;2.47;1.40;;;;;;;21.63;45.87;99908.63;5097864;28;20074;-62
2023/10/29 11:06:28;;;;;;;3.92;1.63;;;;;;;21.66;46.31;99908.16;5099983;28;20032;-62
2023/10/29 11:08:54;;;;;;;6.07;3.40;;;;;;;21.65;48.44;99911.91;5096747;28;20051;-62
2023/10/29 11:11:22;;;;;;;4.65;2.70;;;;;;;21.67;48.04;99911.69;5099717;28;20119;-62
2023/10/29 11:13:47;;;;;;;4.57;2.42;;;;;;;21.76;47.92;99912.19;5096456;28;20345;-62
2023/10/29 11:16:24;;;;;;;5.40;2.10;;;;;;;21.78;45.95;99908.19;5099132;28;20047;-62
2023/10/29 11:18:50;;;;;;;3.33;1.30;;;;;;;21.85;46.90;99906.25;5096992;28;20061;-62
2023/10/29 11:21:36;;;;;;;3.85;1.63;;;;;;;21.90;47.45;99906.38;5098781;28;20047;-62
2023/10/29 11:24:22;;;;;;;3.63;1.70;;;;;;;21.87;46.47;99903.31;5096166;28;20043;-62